sensor_id;sensor_type;location;lat;lon;timestamp;P1;durP1;ratioP1;P2;durP2;ratioP2
36105;SDS011;22159;55.736;38.048;2022-12-26T00:00:54;3.63;;;0.45;;
36105;SDS011;22159;55.736;38.048;2022-12-26T00:03:20;0.30;;;0.28;;
36105;SDS011;22159;55.736;38.048;2022-12-26T00:05:46;1.02;;;0.40;;
36105;SDS011;22159;55.736;38.048;2022-12-26T00:08:12;1.17;;;0.55;;
36105;SDS011;22159;55.736;38.048;2022-12-26T00:10:38;2.25;;;0.47;;
36105;SDS011;22159;55.736;38.048;2022-12-26T00:13:04;0.40;;;0.30;;
36105;SDS011;22159;55.736;38.048;2022-12-26T00:15:30;1.00;;;0.30;;
36105;SDS011;22159;55.736;38.048;2022-12-26T00:17:56;0.70;;;0.40;;
36105;SDS011;22159;55.736;38.048;2022-12-26T00:20:22;1.67;;;0.57;;
36105;SDS011;22159;55.736;38.048;2022-12-26T00:22:49;0.60;;;0.40;;
36105;SDS011;22159;55.736;38.048;2022-12-26T00:25:15;0.47;;;0.40;;
36105;SDS011;22159;55.736;38.048;2022-12-26T00:27:41;1.42;;;0.30;;
36105;SDS011;22159;55.736;38.048;2022-12-26T00:30:07;1.52;;;0.30;;
36105;SDS011;22159;55.736;38.048;2022-12-26T00:32:33;0.63;;;0.20;;
36105;SDS011;22159;55.736;38.048;2022-12-26T00:34:59;0.70;;;0.38;;
36105;SDS011;22159;55.736;38.048;2022-12-26T00:37:25;1.20;;;0.30;;
36105;SDS011;22159;55.736;38.048;2022-12-26T00:39:51;0.77;;;0.35;;
36105;SDS011;22159;55.736;38.048;2022-12-26T00:42:17;0.75;;;0.47;;
36105;SDS011;22159;55.736;38.048;2022-12-26T00:44:43;2.22;;;0.40;;
36105;SDS011;22159;55.736;38.048;2022-12-26T00:47:09;0.35;;;0.20;;
36105;SDS011;22159;55.736;38.048;2022-12-26T00:49:35;1.20;;;0.40;;
36105;SDS011;22159;55.736;38.048;2022-12-26T00:52:01;1.90;;;0.17;;
36105;SDS011;22159;55.736;38.048;2022-12-26T00:54:27;1.27;;;0.30;;
36105;SDS011;22159;55.736;38.048;2022-12-26T00:56:53;1.20;;;0.28;;
36105;SDS011;22159;55.736;38.048;2022-12-26T00:59:19;1.13;;;0.25;;
36105;SDS011;22159;55.736;38.048;2022-12-26T01:01:45;0.40;;;0.20;;
36105;SDS011;22159;55.736;38.048;2022-12-26T01:04:11;1.77;;;0.30;;
36105;SDS011;22159;55.736;38.048;2022-12-26T01:06:37;0.38;;;0.30;;
36105;SDS011;22159;55.736;38.048;2022-12-26T01:09:03;0.82;;;0.38;;
36105;SDS011;22159;55.736;38.048;2022-12-26T01:11:29;1.08;;;0.40;;
36105;SDS011;22159;55.736;38.048;2022-12-26T01:14:06;0.73;;;0.40;;
36105;SDS011;22159;55.736;38.048;2022-12-26T01:16:32;0.30;;;0.20;;
36105;SDS011;22159;55.736;38.048;2022-12-26T01:18:58;0.63;;;0.30;;
36105;SDS011;22159;55.736;38.048;2022-12-26T01:21:24;0.85;;;0.45;;
36105;SDS011;22159;55.736;38.048;2022-12-26T01:23:50;0.30;;;0.30;;
36105;SDS011;22159;55.736;38.048;2022-12-26T01:26:16;1.15;;;0.30;;
36105;SDS011;22159;55.736;38.048;2022-12-26T01:28:42;0.45;;;0.40;;
36105;SDS011;22159;55.736;38.048;2022-12-26T01:31:08;0.63;;;0.30;;
36105;SDS011;22159;55.736;38.048;2022-12-26T01:33:34;0.98;;;0.50;;
36105;SDS011;22159;55.736;38.048;2022-12-26T01:36:00;1.50;;;0.40;;
36105;SDS011;22159;55.736;38.048;2022-12-26T01:38:26;1.23;;;0.35;;
36105;SDS011;22159;55.736;38.048;2022-12-26T01:40:52;1.85;;;0.40;;
36105;SDS011;22159;55.736;38.048;2022-12-26T01:46:18;1.48;;;0.47;;
36105;SDS011;22159;55.736;38.048;2022-12-26T01:48:45;0.50;;;0.43;;
36105;SDS011;22159;55.736;38.048;2022-12-26T01:51:12;0.93;;;0.40;;
36105;SDS011;22159;55.736;38.048;2022-12-26T01:53:40;0.73;;;0.40;;
36105;SDS011;22159;55.736;38.048;2022-12-26T01:56:10;1.13;;;0.40;;
36105;SDS011;22159;55.736;38.048;2022-12-26T01:59:24;1.15;;;0.50;;
36105;SDS011;22159;55.736;38.048;2022-12-26T02:01:24;0.98;;;0.50;;
36105;SDS011;22159;55.736;38.048;2022-12-26T02:03:51;1.52;;;0.70;;
36105;SDS011;22159;55.736;38.048;2022-12-26T02:06:36;0.90;;;0.70;;
36105;SDS011;22159;55.736;38.048;2022-12-26T02:09:05;1.10;;;0.43;;
36105;SDS011;22159;55.736;38.048;2022-12-26T02:11:35;0.82;;;0.50;;
36105;SDS011;22159;55.736;38.048;2022-12-26T02:14:04;0.68;;;0.52;;
36105;SDS011;22159;55.736;38.048;2022-12-26T02:16:30;0.68;;;0.60;;
36105;SDS011;22159;55.736;38.048;2022-12-26T02:18:57;0.73;;;0.60;;
36105;SDS011;22159;55.736;38.048;2022-12-26T02:24:01;0.68;;;0.60;;
36105;SDS011;22159;55.736;38.048;2022-12-26T02:37:13;0.85;;;0.65;;
36105;SDS011;22159;55.736;38.048;2022-12-26T02:39:50;0.50;;;0.50;;
36105;SDS011;22159;55.736;38.048;2022-12-26T02:42:23;1.02;;;0.77;;
36105;SDS011;22159;55.736;38.048;2022-12-26T02:50:13;0.70;;;0.50;;
36105;SDS011;22159;55.736;38.048;2022-12-26T02:55:49;1.15;;;0.50;;
36105;SDS011;22159;55.736;38.048;2022-12-26T03:01:41;1.63;;;0.75;;
36105;SDS011;22159;55.736;38.048;2022-12-26T03:04:28;1.50;;;0.80;;
36105;SDS011;22159;55.736;38.048;2022-12-26T03:07:32;0.70;;;0.60;;
36105;SDS011;22159;55.736;38.048;2022-12-26T03:10:19;1.45;;;0.65;;
36105;SDS011;22159;55.736;38.048;2022-12-26T03:13:07;0.90;;;0.68;;
36105;SDS011;22159;55.736;38.048;2022-12-26T03:15:36;2.45;;;0.65;;
36105;SDS011;22159;55.736;38.048;2022-12-26T03:18:21;0.73;;;0.60;;
36105;SDS011;22159;55.736;38.048;2022-12-26T03:20:49;2.58;;;0.70;;
36105;SDS011;22159;55.736;38.048;2022-12-26T03:23:15;1.17;;;0.80;;
36105;SDS011;22159;55.736;38.048;2022-12-26T03:25:53;1.75;;;0.50;;
36105;SDS011;22159;55.736;38.048;2022-12-26T03:28:39;1.58;;;0.90;;
36105;SDS011;22159;55.736;38.048;2022-12-26T03:31:06;1.67;;;0.70;;
36105;SDS011;22159;55.736;38.048;2022-12-26T03:33:34;1.48;;;0.98;;
36105;SDS011;22159;55.736;38.048;2022-12-26T03:41:40;1.45;;;0.90;;
36105;SDS011;22159;55.736;38.048;2022-12-26T03:44:28;1.65;;;0.85;;
36105;SDS011;22159;55.736;38.048;2022-12-26T03:47:18;1.85;;;1.00;;
36105;SDS011;22159;55.736;38.048;2022-12-26T03:50:30;3.13;;;1.10;;
36105;SDS011;22159;55.736;38.048;2022-12-26T03:53:16;2.00;;;0.95;;
36105;SDS011;22159;55.736;38.048;2022-12-26T03:58:57;1.63;;;0.70;;
36105;SDS011;22159;55.736;38.048;2022-12-26T04:01:43;2.58;;;0.98;;
36105;SDS011;22159;55.736;38.048;2022-12-26T04:04:29;3.17;;;1.02;;
36105;SDS011;22159;55.736;38.048;2022-12-26T04:07:20;2.88;;;1.13;;
36105;SDS011;22159;55.736;38.048;2022-12-26T04:10:08;6.88;;;3.80;;
36105;SDS011;22159;55.736;38.048;2022-12-26T04:12:53;7.10;;;3.13;;
36105;SDS011;22159;55.736;38.048;2022-12-26T04:18:42;5.47;;;2.38;;
36105;SDS011;22159;55.736;38.048;2022-12-26T04:21:48;4.43;;;2.15;;
36105;SDS011;22159;55.736;38.048;2022-12-26T04:24:38;3.08;;;1.88;;
36105;SDS011;22159;55.736;38.048;2022-12-26T04:27:25;2.90;;;1.80;;
36105;SDS011;22159;55.736;38.048;2022-12-26T04:30:11;3.10;;;1.63;;
36105;SDS011;22159;55.736;38.048;2022-12-26T04:32:57;2.78;;;1.40;;
36105;SDS011;22159;55.736;38.048;2022-12-26T04:35:48;3.88;;;1.30;;
36105;SDS011;22159;55.736;38.048;2022-12-26T04:38:39;1.48;;;1.05;;
36105;SDS011;22159;55.736;38.048;2022-12-26T04:41:25;1.90;;;1.48;;
36105;SDS011;22159;55.736;38.048;2022-12-26T04:44:10;3.25;;;1.40;;
36105;SDS011;22159;55.736;38.048;2022-12-26T04:46:38;2.15;;;0.98;;
36105;SDS011;22159;55.736;38.048;2022-12-26T04:49:06;1.98;;;1.08;;
36105;SDS011;22159;55.736;38.048;2022-12-26T04:51:51;1.95;;;1.00;;
36105;SDS011;22159;55.736;38.048;2022-12-26T04:54:17;1.77;;;0.90;;
36105;SDS011;22159;55.736;38.048;2022-12-26T04:56:43;1.50;;;1.10;;
36105;SDS011;22159;55.736;38.048;2022-12-26T04:59:09;3.97;;;1.15;;
36105;SDS011;22159;55.736;38.048;2022-12-26T05:01:35;0.95;;;0.80;;
36105;SDS011;22159;55.736;38.048;2022-12-26T05:04:20;1.65;;;0.93;;
36105;SDS011;22159;55.736;38.048;2022-12-26T05:07:08;3.15;;;1.10;;
36105;SDS011;22159;55.736;38.048;2022-12-26T05:09:54;1.45;;;1.00;;
36105;SDS011;22159;55.736;38.048;2022-12-26T05:12:20;1.38;;;1.08;;
36105;SDS011;22159;55.736;38.048;2022-12-26T05:14:46;1.42;;;0.90;;
36105;SDS011;22159;55.736;38.048;2022-12-26T05:17:12;2.25;;;0.95;;
36105;SDS011;22159;55.736;38.048;2022-12-26T05:19:57;1.58;;;0.80;;
36105;SDS011;22159;55.736;38.048;2022-12-26T05:22:42;2.33;;;0.80;;
36105;SDS011;22159;55.736;38.048;2022-12-26T05:25:28;1.08;;;0.75;;
36105;SDS011;22159;55.736;38.048;2022-12-26T05:28:14;1.33;;;0.60;;
36105;SDS011;22159;55.736;38.048;2022-12-26T05:30:58;1.00;;;0.82;;
36105;SDS011;22159;55.736;38.048;2022-12-26T05:33:25;0.85;;;0.80;;
36105;SDS011;22159;55.736;38.048;2022-12-26T05:36:11;1.10;;;0.77;;
36105;SDS011;22159;55.736;38.048;2022-12-26T05:38:37;1.10;;;0.82;;
36105;SDS011;22159;55.736;38.048;2022-12-26T05:41:03;0.73;;;0.73;;
36105;SDS011;22159;55.736;38.048;2022-12-26T05:43:30;1.85;;;0.90;;
36105;SDS011;22159;55.736;38.048;2022-12-26T05:45:56;2.55;;;1.00;;
36105;SDS011;22159;55.736;38.048;2022-12-26T05:48:22;1.55;;;0.70;;
36105;SDS011;22159;55.736;38.048;2022-12-26T05:50:48;1.35;;;0.88;;
36105;SDS011;22159;55.736;38.048;2022-12-26T05:53:14;0.63;;;0.60;;
36105;SDS011;22159;55.736;38.048;2022-12-26T05:55:40;1.13;;;0.73;;
36105;SDS011;22159;55.736;38.048;2022-12-26T05:58:06;1.13;;;0.70;;
36105;SDS011;22159;55.736;38.048;2022-12-26T06:00:32;1.05;;;0.70;;
36105;SDS011;22159;55.736;38.048;2022-12-26T06:02:58;0.73;;;0.50;;
36105;SDS011;22159;55.736;38.048;2022-12-26T06:05:26;0.82;;;0.60;;
36105;SDS011;22159;55.736;38.048;2022-12-26T06:07:52;1.42;;;0.70;;
36105;SDS011;22159;55.736;38.048;2022-12-26T06:10:18;1.13;;;0.55;;
36105;SDS011;22159;55.736;38.048;2022-12-26T06:12:44;2.22;;;0.68;;
36105;SDS011;22159;55.736;38.048;2022-12-26T06:15:10;3.63;;;0.95;;
36105;SDS011;22159;55.736;38.048;2022-12-26T06:17:37;1.40;;;0.80;;
36105;SDS011;22159;55.736;38.048;2022-12-26T06:20:03;0.73;;;0.63;;
36105;SDS011;22159;55.736;38.048;2022-12-26T06:22:29;1.27;;;0.82;;
36105;SDS011;22159;55.736;38.048;2022-12-26T06:24:55;1.05;;;0.70;;
36105;SDS011;22159;55.736;38.048;2022-12-26T06:27:21;1.33;;;0.60;;
36105;SDS011;22159;55.736;38.048;2022-12-26T06:29:47;1.17;;;0.50;;
36105;SDS011;22159;55.736;38.048;2022-12-26T06:32:13;0.80;;;0.60;;
36105;SDS011;22159;55.736;38.048;2022-12-26T06:34:39;2.38;;;0.90;;
36105;SDS011;22159;55.736;38.048;2022-12-26T06:37:05;1.50;;;0.60;;
36105;SDS011;22159;55.736;38.048;2022-12-26T06:39:31;1.05;;;0.75;;
36105;SDS011;22159;55.736;38.048;2022-12-26T06:41:57;1.63;;;0.70;;
36105;SDS011;22159;55.736;38.048;2022-12-26T06:44:23;1.38;;;0.63;;
36105;SDS011;22159;55.736;38.048;2022-12-26T06:46:49;1.75;;;0.70;;
36105;SDS011;22159;55.736;38.048;2022-12-26T06:49:15;2.17;;;0.70;;
36105;SDS011;22159;55.736;38.048;2022-12-26T06:51:41;1.50;;;0.60;;
36105;SDS011;22159;55.736;38.048;2022-12-26T06:54:09;2.00;;;0.60;;
36105;SDS011;22159;55.736;38.048;2022-12-26T06:56:35;1.92;;;0.50;;
36105;SDS011;22159;55.736;38.048;2022-12-26T06:59:02;2.50;;;0.82;;
36105;SDS011;22159;55.736;38.048;2022-12-26T07:01:29;1.10;;;0.60;;
36105;SDS011;22159;55.736;38.048;2022-12-26T07:03:55;0.95;;;0.70;;
36105;SDS011;22159;55.736;38.048;2022-12-26T07:08:48;1.10;;;0.70;;
36105;SDS011;22159;55.736;38.048;2022-12-26T07:11:14;1.85;;;0.80;;
36105;SDS011;22159;55.736;38.048;2022-12-26T07:13:41;1.58;;;0.80;;
36105;SDS011;22159;55.736;38.048;2022-12-26T07:16:07;1.77;;;0.70;;
36105;SDS011;22159;55.736;38.048;2022-12-26T07:18:33;2.67;;;0.80;;
36105;SDS011;22159;55.736;38.048;2022-12-26T07:20:59;1.35;;;0.60;;
36105;SDS011;22159;55.736;38.048;2022-12-26T07:23:25;2.42;;;0.70;;
36105;SDS011;22159;55.736;38.048;2022-12-26T07:25:51;1.80;;;0.90;;
36105;SDS011;22159;55.736;38.048;2022-12-26T07:28:17;2.05;;;0.73;;
36105;SDS011;22159;55.736;38.048;2022-12-26T07:30:47;0.80;;;0.57;;
36105;SDS011;22159;55.736;38.048;2022-12-26T07:33:13;1.40;;;0.70;;
36105;SDS011;22159;55.736;38.048;2022-12-26T07:35:39;0.88;;;0.70;;
36105;SDS011;22159;55.736;38.048;2022-12-26T07:38:05;1.38;;;0.70;;
36105;SDS011;22159;55.736;38.048;2022-12-26T07:40:31;1.60;;;0.60;;
36105;SDS011;22159;55.736;38.048;2022-12-26T07:42:57;2.35;;;0.65;;
36105;SDS011;22159;55.736;38.048;2022-12-26T07:45:23;1.35;;;0.70;;
36105;SDS011;22159;55.736;38.048;2022-12-26T07:47:55;1.42;;;0.60;;
36105;SDS011;22159;55.736;38.048;2022-12-26T07:50:22;1.80;;;0.68;;
36105;SDS011;22159;55.736;38.048;2022-12-26T07:52:48;1.27;;;0.68;;
36105;SDS011;22159;55.736;38.048;2022-12-26T07:55:14;1.58;;;0.68;;
36105;SDS011;22159;55.736;38.048;2022-12-26T07:57:41;2.00;;;0.80;;
36105;SDS011;22159;55.736;38.048;2022-12-26T08:00:07;0.75;;;0.57;;
36105;SDS011;22159;55.736;38.048;2022-12-26T08:02:33;1.75;;;0.73;;
36105;SDS011;22159;55.736;38.048;2022-12-26T08:04:59;2.17;;;0.70;;
36105;SDS011;22159;55.736;38.048;2022-12-26T08:07:25;2.58;;;0.82;;
36105;SDS011;22159;55.736;38.048;2022-12-26T08:09:51;1.38;;;0.80;;
36105;SDS011;22159;55.736;38.048;2022-12-26T08:12:17;1.35;;;0.60;;
36105;SDS011;22159;55.736;38.048;2022-12-26T08:17:14;1.08;;;0.70;;
36105;SDS011;22159;55.736;38.048;2022-12-26T08:19:40;0.70;;;0.50;;
36105;SDS011;22159;55.736;38.048;2022-12-26T08:22:06;0.85;;;0.50;;
36105;SDS011;22159;55.736;38.048;2022-12-26T08:24:32;1.70;;;0.85;;
36105;SDS011;22159;55.736;38.048;2022-12-26T08:26:58;1.55;;;0.80;;
36105;SDS011;22159;55.736;38.048;2022-12-26T08:29:24;1.33;;;0.60;;
36105;SDS011;22159;55.736;38.048;2022-12-26T08:31:50;2.28;;;0.68;;
36105;SDS011;22159;55.736;38.048;2022-12-26T08:34:16;1.88;;;0.70;;
36105;SDS011;22159;55.736;38.048;2022-12-26T08:36:42;1.92;;;0.73;;
36105;SDS011;22159;55.736;38.048;2022-12-26T08:39:08;1.92;;;0.70;;
36105;SDS011;22159;55.736;38.048;2022-12-26T08:41:34;0.80;;;0.50;;
36105;SDS011;22159;55.736;38.048;2022-12-26T08:44:00;0.82;;;0.50;;
36105;SDS011;22159;55.736;38.048;2022-12-26T08:46:26;2.03;;;0.70;;
36105;SDS011;22159;55.736;38.048;2022-12-26T08:48:52;2.72;;;0.85;;
36105;SDS011;22159;55.736;38.048;2022-12-26T08:51:19;2.03;;;0.80;;
36105;SDS011;22159;55.736;38.048;2022-12-26T08:53:46;1.20;;;0.68;;
36105;SDS011;22159;55.736;38.048;2022-12-26T08:56:14;1.95;;;0.70;;
36105;SDS011;22159;55.736;38.048;2022-12-26T08:58:40;3.20;;;0.73;;
36105;SDS011;22159;55.736;38.048;2022-12-26T09:01:07;1.33;;;0.60;;
36105;SDS011;22159;55.736;38.048;2022-12-26T09:03:34;1.13;;;0.60;;
36105;SDS011;22159;55.736;38.048;2022-12-26T09:06:00;1.63;;;0.63;;
36105;SDS011;22159;55.736;38.048;2022-12-26T09:08:29;1.45;;;0.60;;
36105;SDS011;22159;55.736;38.048;2022-12-26T09:11:00;2.13;;;0.40;;
36105;SDS011;22159;55.736;38.048;2022-12-26T09:13:27;1.40;;;0.43;;
36105;SDS011;22159;55.736;38.048;2022-12-26T09:15:53;0.63;;;0.32;;
36105;SDS011;22159;55.736;38.048;2022-12-26T09:18:19;0.90;;;0.77;;
36105;SDS011;22159;55.736;38.048;2022-12-26T09:20:45;1.38;;;0.50;;
36105;SDS011;22159;55.736;38.048;2022-12-26T09:23:11;1.15;;;0.60;;
36105;SDS011;22159;55.736;38.048;2022-12-26T09:25:39;1.20;;;0.60;;
36105;SDS011;22159;55.736;38.048;2022-12-26T09:28:05;1.45;;;0.70;;
36105;SDS011;22159;55.736;38.048;2022-12-26T09:30:31;1.25;;;0.60;;
36105;SDS011;22159;55.736;38.048;2022-12-26T09:32:57;1.33;;;0.45;;
36105;SDS011;22159;55.736;38.048;2022-12-26T09:35:23;1.25;;;0.50;;
36105;SDS011;22159;55.736;38.048;2022-12-26T09:37:49;1.17;;;0.50;;
36105;SDS011;22159;55.736;38.048;2022-12-26T09:40:22;1.05;;;0.50;;
36105;SDS011;22159;55.736;38.048;2022-12-26T09:45:16;0.60;;;0.50;;
36105;SDS011;22159;55.736;38.048;2022-12-26T09:55:02;0.70;;;0.52;;
36105;SDS011;22159;55.736;38.048;2022-12-26T09:57:37;0.88;;;0.45;;
36105;SDS011;22159;55.736;38.048;2022-12-26T10:00:04;1.23;;;0.65;;
36105;SDS011;22159;55.736;38.048;2022-12-26T10:02:31;1.05;;;0.60;;
36105;SDS011;22159;55.736;38.048;2022-12-26T10:04:58;0.98;;;0.50;;
36105;SDS011;22159;55.736;38.048;2022-12-26T10:10:07;1.33;;;0.50;;
36105;SDS011;22159;55.736;38.048;2022-12-26T10:15:33;0.80;;;0.60;;
36105;SDS011;22159;55.736;38.048;2022-12-26T10:28:03;1.05;;;0.60;;
36105;SDS011;22159;55.736;38.048;2022-12-26T10:30:33;0.85;;;0.50;;
36105;SDS011;22159;55.736;38.048;2022-12-26T10:33:01;1.92;;;0.63;;
36105;SDS011;22159;55.736;38.048;2022-12-26T10:37:57;1.35;;;0.50;;
36105;SDS011;22159;55.736;38.048;2022-12-26T10:40:30;1.10;;;0.50;;
36105;SDS011;22159;55.736;38.048;2022-12-26T10:42:59;3.50;;;0.73;;
36105;SDS011;22159;55.736;38.048;2022-12-26T10:45:32;0.88;;;0.47;;
36105;SDS011;22159;55.736;38.048;2022-12-26T10:48:01;1.70;;;0.63;;
36105;SDS011;22159;55.736;38.048;2022-12-26T10:50:28;0.98;;;0.50;;
36105;SDS011;22159;55.736;38.048;2022-12-26T10:52:58;0.93;;;0.70;;
36105;SDS011;22159;55.736;38.048;2022-12-26T10:55:25;2.92;;;0.68;;
36105;SDS011;22159;55.736;38.048;2022-12-26T10:57:52;2.63;;;0.50;;
36105;SDS011;22159;55.736;38.048;2022-12-26T11:00:20;1.40;;;0.60;;
36105;SDS011;22159;55.736;38.048;2022-12-26T11:07:55;1.05;;;0.50;;
36105;SDS011;22159;55.736;38.048;2022-12-26T11:10:23;1.83;;;0.60;;
36105;SDS011;22159;55.736;38.048;2022-12-26T11:12:58;0.57;;;0.52;;
36105;SDS011;22159;55.736;38.048;2022-12-26T11:15:38;1.50;;;0.50;;
36105;SDS011;22159;55.736;38.048;2022-12-26T11:20:49;0.70;;;0.70;;
36105;SDS011;22159;55.736;38.048;2022-12-26T11:23:20;0.60;;;0.50;;
36105;SDS011;22159;55.736;38.048;2022-12-26T11:25:47;1.92;;;0.60;;
36105;SDS011;22159;55.736;38.048;2022-12-26T11:28:19;1.30;;;0.47;;
36105;SDS011;22159;55.736;38.048;2022-12-26T11:30:46;1.33;;;0.63;;
36105;SDS011;22159;55.736;38.048;2022-12-26T11:35:46;0.90;;;0.60;;
36105;SDS011;22159;55.736;38.048;2022-12-26T11:38:14;1.65;;;0.70;;
36105;SDS011;22159;55.736;38.048;2022-12-26T11:40:59;0.73;;;0.57;;
36105;SDS011;22159;55.736;38.048;2022-12-26T11:43:44;0.68;;;0.60;;
36105;SDS011;22159;55.736;38.048;2022-12-26T11:46:10;1.65;;;0.73;;
36105;SDS011;22159;55.736;38.048;2022-12-26T11:48:36;0.52;;;0.50;;
36105;SDS011;22159;55.736;38.048;2022-12-26T11:51:03;1.00;;;0.80;;
36105;SDS011;22159;55.736;38.048;2022-12-26T11:53:29;1.38;;;0.60;;
36105;SDS011;22159;55.736;38.048;2022-12-26T11:56:00;1.10;;;0.60;;
36105;SDS011;22159;55.736;38.048;2022-12-26T11:58:29;2.20;;;0.80;;
36105;SDS011;22159;55.736;38.048;2022-12-26T12:18:49;1.45;;;0.80;;
36105;SDS011;22159;55.736;38.048;2022-12-26T12:21:26;0.93;;;0.60;;
36105;SDS011;22159;55.736;38.048;2022-12-26T12:24:08;1.52;;;0.50;;
36105;SDS011;22159;55.736;38.048;2022-12-26T12:29:31;0.70;;;0.60;;
36105;SDS011;22159;55.736;38.048;2022-12-26T12:32:06;2.72;;;0.63;;
36105;SDS011;22159;55.736;38.048;2022-12-26T12:37:25;1.83;;;0.90;;
36105;SDS011;22159;55.736;38.048;2022-12-26T12:40:00;0.73;;;0.55;;
36105;SDS011;22159;55.736;38.048;2022-12-26T12:42:32;1.35;;;0.70;;
36105;SDS011;22159;55.736;38.048;2022-12-26T12:47:42;2.25;;;0.80;;
36105;SDS011;22159;55.736;38.048;2022-12-26T12:50:16;1.70;;;0.82;;
36105;SDS011;22159;55.736;38.048;2022-12-26T12:55:39;1.05;;;0.65;;
36105;SDS011;22159;55.736;38.048;2022-12-26T12:58:44;1.88;;;0.80;;
36105;SDS011;22159;55.736;38.048;2022-12-26T13:01:00;1.83;;;0.50;;
36105;SDS011;22159;55.736;38.048;2022-12-26T13:06:05;1.48;;;0.70;;
36105;SDS011;22159;55.736;38.048;2022-12-26T13:11:11;1.60;;;0.55;;
36105;SDS011;22159;55.736;38.048;2022-12-26T13:16:42;1.40;;;0.70;;
36105;SDS011;22159;55.736;38.048;2022-12-26T13:19:18;2.15;;;0.85;;
36105;SDS011;22159;55.736;38.048;2022-12-26T13:21:45;2.15;;;0.60;;
36105;SDS011;22159;55.736;38.048;2022-12-26T13:24:30;1.70;;;0.65;;
36105;SDS011;22159;55.736;38.048;2022-12-26T13:32:00;0.93;;;0.70;;
36105;SDS011;22159;55.736;38.048;2022-12-26T13:34:28;1.50;;;0.77;;
36105;SDS011;22159;55.736;38.048;2022-12-26T13:36:55;2.83;;;0.73;;
36105;SDS011;22159;55.736;38.048;2022-12-26T13:41:49;1.05;;;0.60;;
36105;SDS011;22159;55.736;38.048;2022-12-26T13:44:35;2.45;;;0.80;;
36105;SDS011;22159;55.736;38.048;2022-12-26T13:47:01;1.17;;;0.90;;
36105;SDS011;22159;55.736;38.048;2022-12-26T13:49:40;6.88;;;0.82;;
36105;SDS011;22159;55.736;38.048;2022-12-26T13:54:36;1.40;;;0.70;;
36105;SDS011;22159;55.736;38.048;2022-12-26T14:07:56;1.58;;;0.80;;
36105;SDS011;22159;55.736;38.048;2022-12-26T14:10:27;1.50;;;0.80;;
36105;SDS011;22159;55.736;38.048;2022-12-26T14:33:29;3.15;;;1.10;;
36105;SDS011;22159;55.736;38.048;2022-12-26T14:45:54;2.10;;;1.13;;
36105;SDS011;22159;55.736;38.048;2022-12-26T14:55:55;2.65;;;0.82;;
36105;SDS011;22159;55.736;38.048;2022-12-26T15:00:51;2.60;;;0.73;;
36105;SDS011;22159;55.736;38.048;2022-12-26T15:17:03;1.15;;;0.93;;
36105;SDS011;22159;55.736;38.048;2022-12-26T15:19:49;1.95;;;1.00;;
36105;SDS011;22159;55.736;38.048;2022-12-26T15:22:32;3.60;;;1.20;;
36105;SDS011;22159;55.736;38.048;2022-12-26T15:25:23;1.83;;;0.98;;
36105;SDS011;22159;55.736;38.048;2022-12-26T15:33:11;0.93;;;0.70;;
36105;SDS011;22159;55.736;38.048;2022-12-26T15:36:24;2.28;;;0.90;;
36105;SDS011;22159;55.736;38.048;2022-12-26T15:49:14;1.00;;;0.70;;
36105;SDS011;22159;55.736;38.048;2022-12-26T15:57:11;2.17;;;0.98;;
36105;SDS011;22159;55.736;38.048;2022-12-26T16:02:12;2.30;;;0.90;;
36105;SDS011;22159;55.736;38.048;2022-12-26T16:07:27;1.95;;;0.90;;
36105;SDS011;22159;55.736;38.048;2022-12-26T16:09:54;1.05;;;0.95;;
36105;SDS011;22159;55.736;38.048;2022-12-26T16:12:23;2.53;;;0.80;;
36105;SDS011;22159;55.736;38.048;2022-12-26T16:14:58;1.10;;;0.80;;
36105;SDS011;22159;55.736;38.048;2022-12-26T16:17:24;2.10;;;0.80;;
36105;SDS011;22159;55.736;38.048;2022-12-26T16:19:52;1.95;;;0.95;;
36105;SDS011;22159;55.736;38.048;2022-12-26T16:22:24;2.85;;;0.77;;
36105;SDS011;22159;55.736;38.048;2022-12-26T16:25:14;3.08;;;1.10;;
36105;SDS011;22159;55.736;38.048;2022-12-26T16:27:41;1.83;;;0.90;;
36105;SDS011;22159;55.736;38.048;2022-12-26T16:30:18;1.60;;;0.70;;
36105;SDS011;22159;55.736;38.048;2022-12-26T16:32:45;1.58;;;0.80;;
36105;SDS011;22159;55.736;38.048;2022-12-26T16:35:18;1.88;;;0.98;;
36105;SDS011;22159;55.736;38.048;2022-12-26T16:37:45;1.52;;;0.82;;
36105;SDS011;22159;55.736;38.048;2022-12-26T16:42:42;2.00;;;0.88;;
36105;SDS011;22159;55.736;38.048;2022-12-26T16:45:16;1.77;;;0.73;;
36105;SDS011;22159;55.736;38.048;2022-12-26T16:47:43;1.38;;;0.50;;
36105;SDS011;22159;55.736;38.048;2022-12-26T16:50:29;3.22;;;0.90;;
36105;SDS011;22159;55.736;38.048;2022-12-26T16:58:12;2.45;;;0.85;;
36105;SDS011;22159;55.736;38.048;2022-12-26T17:00:38;2.45;;;0.90;;
36105;SDS011;22159;55.736;38.048;2022-12-26T17:03:15;3.13;;;1.23;;
36105;SDS011;22159;55.736;38.048;2022-12-26T17:05:44;3.70;;;1.42;;
36105;SDS011;22159;55.736;38.048;2022-12-26T17:08:11;3.50;;;1.00;;
36105;SDS011;22159;55.736;38.048;2022-12-26T17:10:38;2.42;;;1.10;;
36105;SDS011;22159;55.736;38.048;2022-12-26T17:13:13;3.20;;;1.02;;
36105;SDS011;22159;55.736;38.048;2022-12-26T17:15:47;2.70;;;1.08;;
36105;SDS011;22159;55.736;38.048;2022-12-26T17:23:43;3.50;;;1.33;;
36105;SDS011;22159;55.736;38.048;2022-12-26T17:26:15;5.88;;;1.63;;
36105;SDS011;22159;55.736;38.048;2022-12-26T17:28:41;6.00;;;1.52;;
36105;SDS011;22159;55.736;38.048;2022-12-26T17:31:11;5.22;;;1.38;;
36105;SDS011;22159;55.736;38.048;2022-12-26T17:33:38;4.05;;;1.77;;
36105;SDS011;22159;55.736;38.048;2022-12-26T17:36:05;7.93;;;1.75;;
36105;SDS011;22159;55.736;38.048;2022-12-26T17:38:35;7.32;;;1.55;;
36105;SDS011;22159;55.736;38.048;2022-12-26T17:41:02;6.05;;;1.70;;
36105;SDS011;22159;55.736;38.048;2022-12-26T17:43:30;2.72;;;1.50;;
36105;SDS011;22159;55.736;38.048;2022-12-26T17:45:56;4.72;;;1.65;;
36105;SDS011;22159;55.736;38.048;2022-12-26T17:48:22;5.38;;;1.60;;
36105;SDS011;22159;55.736;38.048;2022-12-26T17:50:53;6.18;;;1.73;;
36105;SDS011;22159;55.736;38.048;2022-12-26T17:53:24;6.03;;;1.40;;
36105;SDS011;22159;55.736;38.048;2022-12-26T17:55:55;5.75;;;1.45;;
36105;SDS011;22159;55.736;38.048;2022-12-26T17:58:21;6.78;;;1.40;;
36105;SDS011;22159;55.736;38.048;2022-12-26T18:00:48;3.65;;;1.20;;
36105;SDS011;22159;55.736;38.048;2022-12-26T18:03:15;8.80;;;1.40;;
36105;SDS011;22159;55.736;38.048;2022-12-26T18:05:41;4.13;;;1.23;;
36105;SDS011;22159;55.736;38.048;2022-12-26T18:08:09;5.57;;;1.60;;
36105;SDS011;22159;55.736;38.048;2022-12-26T18:10:37;5.35;;;1.40;;
36105;SDS011;22159;55.736;38.048;2022-12-26T18:13:04;4.43;;;1.80;;
36105;SDS011;22159;55.736;38.048;2022-12-26T18:15:31;6.45;;;1.30;;
36105;SDS011;22159;55.736;38.048;2022-12-26T18:17:57;7.53;;;1.40;;
36105;SDS011;22159;55.736;38.048;2022-12-26T18:20:24;5.85;;;2.30;;
36105;SDS011;22159;55.736;38.048;2022-12-26T18:22:51;6.82;;;1.40;;
36105;SDS011;22159;55.736;38.048;2022-12-26T18:25:20;7.57;;;1.73;;
36105;SDS011;22159;55.736;38.048;2022-12-26T18:27:46;5.28;;;1.50;;
36105;SDS011;22159;55.736;38.048;2022-12-26T18:30:16;6.00;;;1.30;;
36105;SDS011;22159;55.736;38.048;2022-12-26T18:32:43;3.75;;;1.10;;
36105;SDS011;22159;55.736;38.048;2022-12-26T18:35:10;4.53;;;1.45;;
36105;SDS011;22159;55.736;38.048;2022-12-26T18:37:36;4.53;;;1.70;;
36105;SDS011;22159;55.736;38.048;2022-12-26T18:40:03;3.05;;;1.27;;
36105;SDS011;22159;55.736;38.048;2022-12-26T18:42:29;3.17;;;1.30;;
36105;SDS011;22159;55.736;38.048;2022-12-26T18:44:55;5.63;;;1.52;;
36105;SDS011;22159;55.736;38.048;2022-12-26T18:47:21;4.05;;;1.38;;